createdAt,value
2023-05-10T00:00:19.175Z,94616.00
2023-05-10T00:01:18.861Z,94608.00
2023-05-10T00:02:18.968Z,94612.00
2023-05-10T00:03:19.012Z,94606.00
2023-05-10T00:04:19.115Z,94606.00
2023-05-10T00:05:19.060Z,94604.00
2023-05-10T00:06:19.152Z,94608.00
2023-05-10T00:07:19.192Z,94608.00
2023-05-10T00:08:19.265Z,94606.00
2023-05-10T00:09:20.170Z,94608.00
2023-05-10T00:10:19.382Z,94604.00
2023-05-10T00:11:21.588Z,94606.00
2023-05-10T00:12:19.467Z,94608.00
2023-05-10T00:13:19.504Z,94610.00
2023-05-10T00:14:19.440Z,94610.00
2023-05-10T00:15:19.444Z,94614.00
2023-05-10T00:16:19.456Z,94614.00
2023-05-10T00:17:19.411Z,94610.00
2023-05-10T00:18:19.416Z,94612.00
2023-05-10T00:19:19.526Z,94610.00
2023-05-10T00:20:19.582Z,94612.00
2023-05-10T00:21:19.389Z,94612.00
2023-05-10T00:22:19.390Z,94614.00
2023-05-10T00:23:19.376Z,94610.00
2023-05-10T00:24:19.374Z,94614.00
2023-05-10T00:25:19.355Z,94610.00
2023-05-10T00:26:19.356Z,94616.00
2023-05-10T00:27:19.359Z,94614.00
2023-05-10T00:28:19.345Z,94612.00
2023-05-10T00:29:19.361Z,94612.00
2023-05-10T00:30:19.444Z,94616.00
2023-05-10T00:31:19.342Z,94614.00
2023-05-10T00:32:19.372Z,94616.00
2023-05-10T00:33:19.380Z,94620.00
2023-05-10T00:34:19.310Z,94618.00
2023-05-10T00:35:19.321Z,94620.00
2023-05-10T00:36:19.294Z,94618.00
2023-05-10T00:37:19.291Z,94618.00
2023-05-10T00:38:19.282Z,94620.00
2023-05-10T00:39:19.284Z,94616.00
2023-05-10T00:40:19.459Z,94616.00
2023-05-10T00:41:19.263Z,94618.00
2023-05-10T00:42:19.251Z,94616.00
2023-05-10T00:43:19.285Z,94620.00
2023-05-10T00:44:19.249Z,94618.00
2023-05-10T00:45:19.272Z,94618.00
2023-05-10T00:46:19.292Z,94616.00
2023-05-10T00:47:19.258Z,94621.00
2023-05-10T00:48:19.237Z,94621.00
2023-05-10T00:49:19.225Z,94620.00
2023-05-10T00:50:19.234Z,94618.00
2023-05-10T00:51:19.232Z,94620.00
2023-05-10T00:52:19.232Z,94618.00
2023-05-10T00:53:19.228Z,94618.00
2023-05-10T00:54:19.227Z,94616.00
2023-05-10T00:55:19.241Z,94616.00
2023-05-10T00:56:19.295Z,94616.00
2023-05-10T00:57:19.327Z,94616.00
2023-05-10T00:58:19.390Z,94618.00
2023-05-10T00:59:19.375Z,94616.00
2023-05-10T01:00:19.393Z,94616.00
2023-05-10T01:01:19.580Z,94614.00
2023-05-10T01:02:19.468Z,94616.00
2023-05-10T01:03:19.588Z,94614.00
2023-05-10T01:04:19.396Z,94616.00
2023-05-10T01:05:19.445Z,94616.00
2023-05-10T01:06:19.410Z,94616.00
2023-05-10T01:07:19.406Z,94616.00
2023-05-10T01:08:19.455Z,94618.00
2023-05-10T01:09:19.447Z,94618.00
2023-05-10T01:10:19.440Z,94618.00
2023-05-10T01:11:19.423Z,94618.00
2023-05-10T01:12:19.474Z,94618.00
2023-05-10T01:13:19.527Z,94618.00
2023-05-10T01:14:19.554Z,94621.00
2023-05-10T01:15:19.580Z,94623.00
2023-05-10T01:16:19.649Z,94621.00
2023-05-10T01:17:19.662Z,94625.00
2023-05-10T01:18:19.640Z,94623.00
2023-05-10T01:19:19.646Z,94623.00
2023-05-10T01:20:19.799Z,94623.00
2023-05-10T01:21:19.655Z,94627.00
2023-05-10T01:22:19.632Z,94627.00
2023-05-10T01:23:19.664Z,94627.00
2023-05-10T01:24:19.632Z,94629.00
2023-05-10T01:25:19.626Z,94631.00
2023-05-10T01:26:19.635Z,94631.00
2023-05-10T01:27:19.636Z,94635.00
2023-05-10T01:28:19.616Z,94635.00
2023-05-10T01:29:19.616Z,94643.00
2023-05-10T01:30:22.235Z,94643.00
2023-05-10T01:31:19.663Z,94645.00
2023-05-10T01:32:19.606Z,94645.00
2023-05-10T01:33:19.630Z,94643.00
2023-05-10T01:34:19.586Z,94643.00
2023-05-10T01:35:19.583Z,94643.00
2023-05-10T01:36:19.615Z,94643.00
2023-05-10T01:37:19.570Z,94643.00
2023-05-10T01:38:19.571Z,94635.00
2023-05-10T01:39:19.590Z,94633.00
2023-05-10T01:40:19.556Z,94635.00
2023-05-10T01:41:19.544Z,94635.00
2023-05-10T01:42:19.537Z,94633.00
2023-05-10T01:43:19.530Z,94645.00
2023-05-10T01:44:19.525Z,94645.00
2023-05-10T01:45:19.526Z,94645.00
2023-05-10T01:46:19.595Z,94645.00
2023-05-10T01:47:19.529Z,94645.00
2023-05-10T01:48:19.515Z,94643.00
2023-05-10T01:49:19.524Z,94633.00
2023-05-10T01:50:19.661Z,94633.00
2023-05-10T01:51:19.478Z,94629.00
2023-05-10T01:52:19.476Z,94627.00
2023-05-10T01:53:19.477Z,94623.00
2023-05-10T01:54:19.465Z,94623.00
2023-05-10T01:55:19.479Z,94625.00
2023-05-10T01:56:19.440Z,94627.00
2023-05-10T01:57:19.451Z,94625.00
2023-05-10T01:58:19.439Z,94625.00
2023-05-10T01:59:19.442Z,94623.00
2023-05-10T02:00:19.434Z,94623.00
2023-05-10T02:01:19.472Z,94623.00
2023-05-10T02:02:19.408Z,94625.00
2023-05-10T02:03:19.438Z,94623.00
2023-05-10T02:04:19.394Z,94623.00
2023-05-10T02:05:19.419Z,94623.00
2023-05-10T02:06:19.380Z,94627.00
2023-05-10T02:07:19.386Z,94625.00
2023-05-10T02:08:19.374Z,94625.00
2023-05-10T02:09:19.364Z,94625.00
2023-05-10T02:10:19.528Z,94625.00
2023-05-10T02:11:19.363Z,94623.00
2023-05-10T02:12:19.344Z,94625.00
2023-05-10T02:13:19.374Z,94623.00
2023-05-10T02:14:19.342Z,94627.00
2023-05-10T02:15:19.325Z,94627.00
2023-05-10T02:16:19.349Z,94627.00
2023-05-10T02:17:19.310Z,94625.00
2023-05-10T02:18:19.314Z,94631.00
2023-05-10T02:19:19.297Z,94629.00
2023-05-10T02:20:19.493Z,94625.00
2023-05-10T02:21:19.308Z,94629.00
2023-05-10T02:22:19.271Z,94625.00
2023-05-10T02:23:19.271Z,94627.00
2023-05-10T02:24:19.264Z,94629.00
2023-05-10T02:25:19.251Z,94625.00
2023-05-10T02:26:19.320Z,94627.00
2023-05-10T02:27:19.338Z,94627.00
2023-05-10T02:28:19.383Z,94627.00
2023-05-10T02:29:19.381Z,94627.00
2023-05-10T02:30:19.443Z,94629.00
2023-05-10T02:31:19.477Z,94631.00
2023-05-10T02:32:19.483Z,94631.00
2023-05-10T02:33:19.475Z,94631.00
2023-05-10T02:34:19.456Z,94631.00
2023-05-10T02:35:19.451Z,94633.00
2023-05-10T02:36:19.466Z,94633.00
2023-05-10T02:37:19.487Z,94633.00
2023-05-10T02:38:19.455Z,94633.00
2023-05-10T02:39:19.464Z,94633.00
2023-05-10T02:40:19.593Z,94631.00
2023-05-10T02:41:19.461Z,94633.00
2023-05-10T02:42:19.461Z,94633.00
2023-05-10T02:43:19.511Z,94633.00
2023-05-10T02:44:19.479Z,94633.00
2023-05-10T02:45:19.488Z,94633.00
2023-05-10T02:46:19.550Z,94635.00
2023-05-10T02:47:19.526Z,94647.00
2023-05-10T02:48:19.523Z,94643.00
2023-05-10T02:49:19.528Z,94647.00
2023-05-10T02:50:19.619Z,94643.00
2023-05-10T02:51:19.546Z,94647.00
2023-05-10T02:52:19.587Z,94645.00
2023-05-10T02:53:19.616Z,94645.00
2023-05-10T02:54:19.624Z,94649.00
2023-05-10T02:55:19.592Z,94647.00
2023-05-10T02:56:19.589Z,94649.00
2023-05-10T02:57:19.598Z,94649.00
2023-05-10T02:58:19.626Z,94649.00
2023-05-10T02:59:19.631Z,94651.00
2023-05-10T03:00:19.629Z,94651.00
2023-05-10T03:01:19.668Z,94653.00
2023-05-10T03:02:19.697Z,94653.00
2023-05-10T03:03:19.651Z,94657.00
2023-05-10T03:04:19.676Z,94657.00
2023-05-10T03:05:19.677Z,94659.00
2023-05-10T03:06:19.674Z,94659.00
2023-05-10T03:07:19.681Z,94661.00
2023-05-10T03:08:19.689Z,94659.00
2023-05-10T03:09:19.736Z,94661.00
2023-05-10T03:10:19.803Z,94661.00
2023-05-10T03:11:19.715Z,94661.00
2023-05-10T03:12:19.713Z,94661.00
2023-05-10T03:13:19.835Z,94655.00
2023-05-10T03:14:19.720Z,94663.00
2023-05-10T03:15:19.728Z,94661.00
2023-05-10T03:16:19.751Z,94663.00
2023-05-10T03:17:19.776Z,94657.00
2023-05-10T03:18:19.773Z,94655.00
2023-05-10T03:19:19.782Z,94659.00
2023-05-10T03:20:19.773Z,94653.00
2023-05-10T03:21:19.773Z,94653.00
2023-05-10T03:22:19.776Z,94651.00
2023-05-10T03:23:19.805Z,94653.00
2023-05-10T03:24:19.852Z,94649.00
2023-05-10T03:25:19.899Z,94651.00
2023-05-10T03:26:19.882Z,94653.00
2023-05-10T03:27:19.870Z,94653.00
2023-05-10T03:28:19.872Z,94661.00
2023-05-10T03:29:19.873Z,94657.00
2023-05-10T03:30:19.889Z,94657.00
2023-05-10T03:31:19.919Z,94659.00
2023-05-10T03:32:19.889Z,94659.00
2023-05-10T03:33:19.897Z,94657.00
2023-05-10T03:34:19.906Z,94659.00
2023-05-10T03:35:19.932Z,94657.00
2023-05-10T03:36:19.921Z,94659.00
2023-05-10T03:37:19.924Z,94659.00
2023-05-10T03:38:19.916Z,94659.00
2023-05-10T03:39:19.917Z,94663.00
2023-05-10T03:40:20.048Z,94657.00
2023-05-10T03:41:19.957Z,94663.00
2023-05-10T03:42:19.909Z,94665.00
2023-05-10T03:43:19.926Z,94665.00
2023-05-10T03:44:19.925Z,94665.00
2023-05-10T03:45:19.922Z,94663.00
2023-05-10T03:46:19.950Z,94666.00
2023-05-10T03:47:19.919Z,94666.00
2023-05-10T03:48:19.935Z,94665.00
2023-05-10T03:49:19.930Z,94666.00
2023-05-10T03:50:20.184Z,94666.00
2023-05-10T03:51:19.936Z,94666.00
2023-05-10T03:52:19.943Z,94665.00
2023-05-10T03:53:19.939Z,94666.00
2023-05-10T03:54:19.940Z,94668.00
2023-05-10T03:55:19.946Z,94672.00
2023-05-10T03:56:19.955Z,94674.00
2023-05-10T03:57:19.987Z,94672.00
2023-05-10T03:58:19.945Z,94672.00
2023-05-10T03:59:19.944Z,94678.00
2023-05-10T04:00:20.072Z,94672.00
2023-05-10T04:01:19.971Z,94670.00
2023-05-10T04:02:20.031Z,94672.00
2023-05-10T04:03:20.002Z,94672.00
2023-05-10T04:04:20.127Z,94672.00
2023-05-10T04:05:19.967Z,94672.00
2023-05-10T04:06:20.020Z,94670.00
2023-05-10T04:07:19.978Z,94674.00
2023-05-10T04:08:19.967Z,94672.00
2023-05-10T04:09:19.974Z,94674.00
2023-05-10T04:10:20.056Z,94674.00
2023-05-10T04:11:19.954Z,94676.00
2023-05-10T04:12:19.971Z,94674.00
2023-05-10T04:13:20.011Z,94676.00
2023-05-10T04:14:19.961Z,94676.00
2023-05-10T04:15:19.938Z,94680.00
2023-05-10T04:16:19.985Z,94678.00
2023-05-10T04:17:19.990Z,94680.00
2023-05-10T04:18:19.950Z,94680.00
2023-05-10T04:19:19.949Z,94684.00
2023-05-10T04:20:19.951Z,94684.00
2023-05-10T04:21:19.950Z,94684.00
2023-05-10T04:22:19.950Z,94686.00
2023-05-10T04:23:19.943Z,94686.00
2023-05-10T04:24:19.938Z,94686.00
2023-05-10T04:25:19.949Z,94688.00
2023-05-10T04:26:19.950Z,94686.00
2023-05-10T04:27:19.955Z,94690.00
2023-05-10T04:28:19.938Z,94692.00
2023-05-10T04:29:20.085Z,94692.00
2023-05-10T04:30:19.950Z,94692.00
2023-05-10T04:31:20.110Z,94692.00
2023-05-10T04:32:19.956Z,94696.00
2023-05-10T04:33:19.966Z,94694.00
2023-05-10T04:34:19.954Z,94696.00
2023-05-10T04:35:19.972Z,94696.00
2023-05-10T04:36:19.948Z,94696.00
2023-05-10T04:37:19.962Z,94698.00
2023-05-10T04:38:19.982Z,94696.00
2023-05-10T04:39:20.014Z,94696.00
2023-05-10T04:40:19.956Z,94698.00
2023-05-10T04:41:19.954Z,94700.00
2023-05-10T04:42:19.981Z,94700.00
2023-05-10T04:43:19.976Z,94698.00
2023-05-10T04:44:20.003Z,94700.00
2023-05-10T04:45:20.010Z,94700.00
2023-05-10T04:46:19.976Z,94700.00
2023-05-10T04:47:20.790Z,94704.00
2023-05-10T04:48:19.964Z,94704.00
2023-05-10T04:49:19.971Z,94700.00
2023-05-10T04:50:19.980Z,94700.00
2023-05-10T04:51:19.969Z,94702.00
2023-05-10T04:52:20.006Z,94700.00
2023-05-10T04:53:19.962Z,94702.00
2023-05-10T04:54:19.963Z,94700.00
2023-05-10T04:55:19.968Z,94700.00
2023-05-10T04:56:19.963Z,94702.00
2023-05-10T04:57:19.969Z,94702.00
2023-05-10T04:58:19.963Z,94702.00
2023-05-10T04:59:19.948Z,94702.00
2023-05-10T05:00:19.954Z,94702.00
2023-05-10T05:01:20.012Z,94706.00
2023-05-10T05:02:19.972Z,94704.00
2023-05-10T05:03:20.058Z,94704.00
2023-05-10T05:04:19.975Z,94706.00
2023-05-10T05:05:19.968Z,94710.00
2023-05-10T05:06:20.033Z,94708.00
2023-05-10T05:07:19.960Z,94710.00
2023-05-10T05:08:19.962Z,94710.00
2023-05-10T05:09:19.959Z,94712.00
2023-05-10T05:10:20.214Z,94712.00
2023-05-10T05:11:19.957Z,94715.00
2023-05-10T05:12:19.962Z,94715.00
2023-05-10T05:13:20.073Z,94715.00
2023-05-10T05:14:19.985Z,94715.00
2023-05-10T05:15:19.954Z,94715.00
2023-05-10T05:16:19.977Z,94717.00
2023-05-10T05:17:19.997Z,94715.00
2023-05-10T05:18:19.939Z,94715.00
2023-05-10T05:19:20.309Z,94713.00
2023-05-10T05:20:20.029Z,94715.00
2023-05-10T05:21:20.337Z,94715.00
2023-05-10T05:22:19.960Z,94713.00
2023-05-10T05:23:19.943Z,94715.00
2023-05-10T05:24:19.965Z,94715.00
2023-05-10T05:25:19.940Z,94719.00
2023-05-10T05:26:20.298Z,94717.00
2023-05-10T05:27:19.944Z,94717.00
2023-05-10T05:28:19.944Z,94719.00
2023-05-10T05:29:19.973Z,94719.00
2023-05-10T05:30:19.958Z,94717.00
2023-05-10T05:31:20.072Z,94717.00
2023-05-10T05:32:19.947Z,94719.00
2023-05-10T05:33:19.989Z,94715.00
2023-05-10T05:34:19.967Z,94717.00
2023-05-10T05:35:20.305Z,94719.00
2023-05-10T05:36:19.968Z,94717.00
2023-05-10T05:37:19.976Z,94719.00
2023-05-10T05:38:19.967Z,94719.00
2023-05-10T05:39:19.968Z,94721.00
2023-05-10T05:40:20.310Z,94725.00
2023-05-10T05:41:19.971Z,94723.00
2023-05-10T05:42:20.020Z,94721.00
2023-05-10T05:43:20.011Z,94723.00
2023-05-10T05:44:20.006Z,94721.00
2023-05-10T05:45:20.538Z,94723.00
2023-05-10T05:46:20.090Z,94721.00
2023-05-10T05:47:20.081Z,94725.00
2023-05-10T05:48:20.040Z,94727.00
2023-05-10T05:49:20.434Z,94727.00
2023-05-10T05:50:20.362Z,94727.00
2023-05-10T05:51:21.009Z,94731.00
2023-05-10T05:52:20.006Z,94733.00
2023-05-10T05:53:20.156Z,94727.00
2023-05-10T05:54:20.351Z,94733.00
2023-05-10T05:55:20.003Z,94731.00
2023-05-10T05:56:20.006Z,94733.00
2023-05-10T05:57:20.002Z,94735.00
2023-05-10T05:58:20.318Z,94733.00
2023-05-10T05:59:20.087Z,94733.00
2023-05-10T06:00:21.314Z,94735.00
2023-05-10T06:01:20.183Z,94733.00
2023-05-10T06:02:20.259Z,94735.00
2023-05-10T06:03:20.473Z,94737.00
2023-05-10T06:04:20.895Z,94737.00
2023-05-10T06:05:20.843Z,94735.00
2023-05-10T06:06:20.473Z,94735.00
2023-05-10T06:07:20.820Z,94735.00
2023-05-10T06:08:20.679Z,94735.00
2023-05-10T06:09:23.847Z,94737.00
2023-05-10T06:10:20.641Z,94739.00
2023-05-10T06:11:20.644Z,94735.00
2023-05-10T06:12:20.926Z,94737.00
2023-05-10T06:13:20.664Z,94739.00
2023-05-10T06:14:20.869Z,94739.00
2023-05-10T06:15:20.824Z,94741.00
2023-05-10T06:16:20.627Z,94737.00
2023-05-10T06:17:20.589Z,94737.00
2023-05-10T06:18:20.597Z,94737.00
2023-05-10T06:19:20.590Z,94739.00
2023-05-10T06:20:20.828Z,94737.00
2023-05-10T06:21:20.603Z,94739.00
2023-05-10T06:22:20.560Z,94741.00
2023-05-10T06:23:20.544Z,94741.00
2023-05-10T06:24:20.573Z,94743.00
2023-05-10T06:25:20.537Z,94741.00
2023-05-10T06:26:20.553Z,94743.00
2023-05-10T06:27:20.539Z,94749.00
2023-05-10T06:28:20.533Z,94747.00
2023-05-10T06:29:20.853Z,94749.00
2023-05-10T06:30:20.534Z,94747.00
2023-05-10T06:31:20.522Z,94749.00
2023-05-10T06:32:23.829Z,94749.00
2023-05-10T06:33:20.500Z,94745.00
2023-05-10T06:34:20.880Z,94749.00
2023-05-10T06:35:20.484Z,94751.00
2023-05-10T06:36:20.478Z,94749.00
2023-05-10T06:37:20.500Z,94753.00
2023-05-10T06:38:20.468Z,94751.00
2023-05-10T06:39:20.837Z,94747.00
2023-05-10T06:40:20.449Z,94749.00
2023-05-10T06:41:22.567Z,94749.00
2023-05-10T06:42:20.455Z,94751.00
2023-05-10T06:43:20.430Z,94753.00
2023-05-10T06:44:20.436Z,94751.00
2023-05-10T06:45:21.172Z,94753.00
2023-05-10T06:46:20.442Z,94753.00
2023-05-10T06:47:20.408Z,94751.00
2023-05-10T06:48:20.476Z,94751.00
2023-05-10T06:49:20.832Z,94751.00
2023-05-10T06:50:20.853Z,94751.00
2023-05-10T06:51:20.379Z,94751.00
2023-05-10T06:52:20.377Z,94753.00
2023-05-10T06:53:20.388Z,94751.00
2023-05-10T06:54:20.722Z,94753.00
2023-05-10T06:55:24.091Z,94753.00
2023-05-10T06:56:20.347Z,94753.00
2023-05-10T06:57:31.424Z,94757.00
2023-05-10T06:58:20.332Z,94755.00
2023-05-10T06:59:20.386Z,94755.00
2023-05-10T07:00:20.824Z,94755.00
2023-05-10T07:01:20.556Z,94757.00
2023-05-10T07:02:20.328Z,94757.00
2023-05-10T07:03:20.370Z,94757.00
2023-05-10T07:04:20.390Z,94757.00
2023-05-10T07:05:20.790Z,94755.00
2023-05-10T07:06:32.159Z,94751.00
2023-05-10T07:07:20.294Z,94755.00
2023-05-10T07:08:20.275Z,94755.00
2023-05-10T07:09:20.304Z,94755.00
2023-05-10T07:10:20.370Z,94755.00
2023-05-10T07:11:20.260Z,94759.00
2023-05-10T07:12:20.310Z,94760.00
2023-05-10T07:13:20.366Z,94760.00
2023-05-10T07:14:20.234Z,94760.00
2023-05-10T07:15:20.245Z,94760.00
2023-05-10T07:16:20.411Z,94762.00
2023-05-10T07:17:20.258Z,94766.00
2023-05-10T07:18:20.303Z,94768.00
2023-05-10T07:19:20.269Z,94764.00
2023-05-10T07:20:20.196Z,94764.00
2023-05-10T07:21:20.295Z,94766.00
2023-05-10T07:22:20.194Z,94766.00
2023-05-10T07:23:20.189Z,94768.00
2023-05-10T07:24:21.174Z,94772.00
2023-05-10T07:25:20.323Z,94774.00
2023-05-10T07:26:20.166Z,94774.00
2023-05-10T07:27:20.160Z,94776.00
2023-05-10T07:28:20.146Z,94778.00
2023-05-10T07:29:20.367Z,94774.00
2023-05-10T07:30:20.198Z,94776.00
2023-05-10T07:31:20.140Z,94774.00
2023-05-10T07:32:20.436Z,94774.00
2023-05-10T07:33:20.234Z,94776.00
2023-05-10T07:34:20.196Z,94776.00
2023-05-10T07:35:20.366Z,94778.00
2023-05-10T07:36:21.302Z,94776.00
2023-05-10T07:37:20.328Z,94778.00
2023-05-10T07:38:20.354Z,94778.00
2023-05-10T07:39:26.570Z,94778.00
2023-05-10T07:40:20.900Z,94780.00
2023-05-10T07:41:20.399Z,94782.00
2023-05-10T07:42:20.354Z,94784.00
2023-05-10T07:43:20.372Z,94786.00
2023-05-10T07:44:20.425Z,94786.00
2023-05-10T07:45:20.361Z,94784.00
2023-05-10T07:46:20.459Z,94782.00
2023-05-10T07:47:20.406Z,94782.00
2023-05-10T07:48:20.374Z,94782.00
2023-05-10T07:49:20.351Z,94780.00
2023-05-10T07:50:20.384Z,94784.00
2023-05-10T07:51:20.295Z,94784.00
2023-05-10T07:52:22.401Z,94786.00
2023-05-10T07:53:20.316Z,94786.00
2023-05-10T07:54:21.408Z,94788.00
2023-05-10T07:55:20.386Z,94788.00
2023-05-10T07:56:20.314Z,94786.00
2023-05-10T07:57:20.309Z,94790.00
2023-05-10T07:58:20.549Z,94786.00
2023-05-10T07:59:20.241Z,94786.00
2023-05-10T08:00:20.402Z,94784.00
2023-05-10T08:01:20.360Z,94786.00
2023-05-10T08:02:20.270Z,94784.00
2023-05-10T08:03:20.401Z,94784.00
2023-05-10T08:04:20.384Z,94784.00
2023-05-10T08:05:20.364Z,94786.00
2023-05-10T08:06:20.407Z,94786.00
2023-05-10T08:07:20.869Z,94786.00
2023-05-10T08:08:20.527Z,94790.00
2023-05-10T08:09:20.576Z,94790.00
2023-05-10T08:10:20.641Z,94792.00
2023-05-10T08:11:20.700Z,94790.00
2023-05-10T08:12:20.743Z,94794.00
2023-05-10T08:13:20.840Z,94790.00
2023-05-10T08:14:20.898Z,94794.00
2023-05-10T08:15:20.914Z,94790.00
2023-05-10T08:16:21.064Z,94794.00
2023-05-10T08:17:22.116Z,94794.00
2023-05-10T08:18:22.182Z,94796.00
2023-05-10T08:19:21.023Z,94796.00
2023-05-10T08:20:21.392Z,94798.00
2023-05-10T08:21:21.012Z,94798.00
2023-05-10T08:22:21.011Z,94796.00
2023-05-10T08:23:21.030Z,94798.00
2023-05-10T08:24:21.093Z,94800.00
2023-05-10T08:25:21.384Z,94796.00
2023-05-10T08:26:21.210Z,94802.00
2023-05-10T08:27:21.302Z,94802.00
2023-05-10T08:28:21.324Z,94800.00
2023-05-10T08:29:21.417Z,94804.00
2023-05-10T08:30:21.884Z,94807.00
2023-05-10T08:31:21.518Z,94806.00
2023-05-10T08:32:21.520Z,94809.00
2023-05-10T08:33:21.570Z,94811.00
2023-05-10T08:34:21.908Z,94811.00
2023-05-10T08:35:21.886Z,94813.00
2023-05-10T08:36:21.703Z,94811.00
2023-05-10T08:37:21.730Z,94811.00
2023-05-10T08:38:24.959Z,94813.00
2023-05-10T08:39:29.883Z,94813.00
2023-05-10T08:41:22.799Z,94811.00
2023-05-10T08:42:21.744Z,94809.00
2023-05-10T08:43:25.000Z,94817.00
2023-05-10T08:44:21.774Z,94815.00
2023-05-10T08:45:21.905Z,94817.00
2023-05-10T08:46:21.842Z,94815.00
2023-05-10T08:47:21.746Z,94813.00
2023-05-10T08:48:21.721Z,94813.00
2023-05-10T08:49:21.686Z,94817.00
2023-05-10T08:50:21.887Z,94817.00
2023-05-10T08:51:21.687Z,94813.00
2023-05-10T08:52:21.683Z,94815.00
2023-05-10T08:53:21.670Z,94817.00
2023-05-10T08:54:21.667Z,94819.00
2023-05-10T08:55:21.959Z,94821.00
2023-05-10T08:56:21.650Z,94821.00
2023-05-10T08:57:21.718Z,94823.00
2023-05-10T08:58:25.106Z,94825.00
2023-05-10T08:59:21.638Z,94827.00
2023-05-10T09:00:21.631Z,94825.00
2023-05-10T09:01:21.680Z,94827.00
2023-05-10T09:02:21.614Z,94825.00
2023-05-10T09:03:21.597Z,94829.00
2023-05-10T09:04:21.721Z,94831.00
2023-05-10T09:05:21.628Z,94833.00
2023-05-10T09:06:21.584Z,94833.00
2023-05-10T09:07:21.576Z,94835.00
2023-05-10T09:08:21.570Z,94835.00
2023-05-10T09:09:21.889Z,94833.00
2023-05-10T09:10:21.557Z,94833.00
2023-05-10T09:11:22.197Z,94833.00
2023-05-10T09:12:21.561Z,94831.00
2023-05-10T09:13:21.529Z,94833.00
2023-05-10T09:14:21.540Z,94833.00
2023-05-10T09:15:21.904Z,94833.00
2023-05-10T09:16:22.436Z,94835.00
2023-05-10T09:17:21.620Z,94833.00
2023-05-10T09:18:21.528Z,94835.00
2023-05-10T09:19:21.497Z,94837.00
2023-05-10T09:20:21.512Z,94837.00
2023-05-10T09:21:21.577Z,94837.00
2023-05-10T09:22:21.477Z,94837.00
2023-05-10T09:23:21.476Z,94837.00
2023-05-10T09:24:21.466Z,94839.00
2023-05-10T09:25:21.900Z,94837.00
2023-05-10T09:26:21.446Z,94839.00
2023-05-10T09:27:21.443Z,94839.00
2023-05-10T09:28:21.474Z,94837.00
2023-05-10T09:29:21.903Z,94841.00
2023-05-10T09:30:21.506Z,94841.00
2023-05-10T09:31:21.713Z,94841.00
2023-05-10T09:32:21.593Z,94843.00
2023-05-10T09:33:53.485Z,94841.00
2023-05-10T09:34:21.949Z,94841.00
2023-05-10T09:35:21.604Z,94841.00
2023-05-10T09:36:21.903Z,94845.00
2023-05-10T09:37:21.591Z,94845.00
2023-05-10T09:38:21.923Z,94843.00
2023-05-10T09:39:21.572Z,94847.00
2023-05-10T09:40:21.579Z,94845.00
2023-05-10T09:41:21.563Z,94843.00
2023-05-10T09:42:21.574Z,94843.00
2023-05-10T09:43:21.910Z,94837.00
2023-05-10T09:44:21.544Z,94835.00
2023-05-10T09:45:21.912Z,94837.00
2023-05-10T09:46:21.582Z,94835.00
2023-05-10T09:47:21.520Z,94833.00
2023-05-10T09:48:21.515Z,94835.00
2023-05-10T09:49:21.553Z,94837.00
2023-05-10T09:50:21.512Z,94837.00
2023-05-10T09:51:21.526Z,94839.00
2023-05-10T09:52:21.518Z,94837.00
2023-05-10T09:53:21.542Z,94839.00
2023-05-10T09:54:21.997Z,94839.00
2023-05-10T09:55:21.567Z,94839.00
2023-05-10T09:56:29.116Z,94839.00
2023-05-10T09:57:21.615Z,94841.00
2023-05-10T09:58:21.647Z,94843.00
2023-05-10T09:59:21.594Z,94843.00
2023-05-10T10:00:21.618Z,94841.00
2023-05-10T10:01:21.953Z,94839.00
2023-05-10T10:02:21.579Z,94839.00
2023-05-10T10:03:21.569Z,94837.00
2023-05-10T10:04:21.578Z,94837.00
2023-05-10T10:05:21.577Z,94837.00
2023-05-10T10:06:29.519Z,94837.00
2023-05-10T10:07:21.555Z,94835.00
2023-05-10T10:08:21.533Z,94839.00
2023-05-10T10:09:21.554Z,94839.00
2023-05-10T10:10:21.926Z,94839.00
2023-05-10T10:11:21.515Z,94839.00
2023-05-10T10:12:21.510Z,94835.00
2023-05-10T10:13:21.521Z,94837.00
2023-05-10T10:14:21.490Z,94835.00
2023-05-10T10:15:21.799Z,94837.00
2023-05-10T10:16:21.512Z,94837.00
2023-05-10T10:17:21.494Z,94837.00
2023-05-10T10:18:21.477Z,94835.00
2023-05-10T10:19:21.927Z,94839.00
2023-05-10T10:20:21.588Z,94837.00
2023-05-10T10:21:21.953Z,94839.00
2023-05-10T10:22:21.455Z,94837.00
2023-05-10T10:23:21.443Z,94843.00
2023-05-10T10:24:21.429Z,94841.00
2023-05-10T10:25:21.436Z,94843.00
2023-05-10T10:26:21.445Z,94845.00
2023-05-10T10:27:21.399Z,94845.00
2023-05-10T10:28:21.394Z,94847.00
2023-05-10T10:29:21.397Z,94847.00
2023-05-10T10:30:21.388Z,94847.00
2023-05-10T10:31:21.493Z,94847.00
2023-05-10T10:32:21.391Z,94849.00
2023-05-10T10:34:21.356Z,94851.00
2023-05-10T10:35:21.350Z,94847.00
2023-05-10T10:36:21.360Z,94845.00
2023-05-10T10:37:21.379Z,94849.00
2023-05-10T10:38:21.318Z,94847.00
2023-05-10T10:39:21.433Z,94851.00
2023-05-10T10:40:21.309Z,94847.00
2023-05-10T10:41:21.434Z,94845.00
2023-05-10T10:42:21.303Z,94843.00
2023-05-10T10:43:21.286Z,94845.00
2023-05-10T10:44:21.283Z,94843.00
2023-05-10T10:45:21.272Z,94843.00
2023-05-10T10:46:21.290Z,94843.00
2023-05-10T10:47:21.275Z,94843.00
2023-05-10T10:48:21.247Z,94843.00
2023-05-10T10:49:21.248Z,94841.00
2023-05-10T10:50:21.231Z,94843.00
2023-05-10T10:51:21.433Z,94843.00
2023-05-10T10:52:21.216Z,94841.00
2023-05-10T10:53:21.276Z,94841.00
2023-05-10T10:54:21.201Z,94839.00
2023-05-10T10:55:21.210Z,94841.00
2023-05-10T10:56:21.192Z,94839.00
2023-05-10T10:57:21.188Z,94837.00
2023-05-10T10:58:21.179Z,94839.00
2023-05-10T10:59:21.177Z,94839.00
2023-05-10T11:00:21.182Z,94837.00
2023-05-10T11:01:21.496Z,94835.00
2023-05-10T11:02:21.294Z,94837.00
2023-05-10T11:03:21.350Z,94833.00
2023-05-10T11:04:21.469Z,94837.00
2023-05-10T11:05:21.459Z,94833.00
2023-05-10T11:06:21.541Z,94831.00
2023-05-10T11:07:21.582Z,94831.00
2023-05-10T11:08:21.631Z,94827.00
2023-05-10T11:09:21.721Z,94825.00
2023-05-10T11:10:21.761Z,94825.00
2023-05-10T11:11:21.820Z,94827.00
2023-05-10T11:12:21.897Z,94825.00
2023-05-10T11:13:21.939Z,94821.00
2023-05-10T11:14:21.967Z,94825.00
2023-05-10T11:15:22.042Z,94821.00
2023-05-10T11:16:22.078Z,94821.00
2023-05-10T11:17:22.021Z,94821.00
2023-05-10T11:18:22.101Z,94821.00
2023-05-10T11:19:22.021Z,94821.00
2023-05-10T11:20:22.014Z,94823.00
2023-05-10T11:21:22.018Z,94825.00
2023-05-10T11:22:22.318Z,94827.00
2023-05-10T11:23:22.105Z,94827.00
2023-05-10T11:24:22.057Z,94825.00
2023-05-10T11:25:23.030Z,94825.00
2023-05-10T11:26:22.085Z,94823.00
2023-05-10T11:27:22.079Z,94823.00
2023-05-10T11:28:22.090Z,94821.00
2023-05-10T11:29:22.142Z,94825.00
2023-05-10T11:30:22.107Z,94821.00
2023-05-10T11:31:22.270Z,94821.00
2023-05-10T11:32:22.134Z,94823.00
2023-05-10T11:33:22.160Z,94819.00
2023-05-10T11:34:22.163Z,94821.00
2023-05-10T11:35:22.182Z,94819.00
2023-05-10T11:36:22.181Z,94815.00
2023-05-10T11:37:22.199Z,94817.00
2023-05-10T11:38:22.211Z,94815.00
2023-05-10T11:39:22.231Z,94813.00
2023-05-10T11:40:22.238Z,94813.00
2023-05-10T11:41:22.274Z,94815.00
2023-05-10T11:42:22.265Z,94813.00
2023-05-10T11:43:22.292Z,94815.00
2023-05-10T11:44:22.291Z,94817.00
2023-05-10T11:45:22.332Z,94817.00
2023-05-10T11:46:22.423Z,94815.00